﻿<?xml version="1.0" encoding="UTF-8" standalone="no" ?>
<gpx xmlns="http://www.topografix.com/GPX/1/1" creator="CompeGPS" version="1.1" xmlns:xsi="http://www.w3.org/2001/XMLSchema-instance" xsi:schemaLocation="http://www.topografix.com/GPX/1/1 http://www.topografix.com/GPX/1/1/gpx.xsd http://www.garmin.com/xmlschemas/GpxExtensions/v3 http://www.garmin.com/xmlschemas/GpxExtensionsv3.xsd http://www.garmin.com/xmlschemas/TrackPointExtension/v1 http://www.garmin.com/xmlschemas/TrackPointExtensionv1.xsd" xmlns:gpxtpx="http://www.garmin.com/xmlschemas/TrackPointExtension/v1">
  <wpt lat="39.649720" lon="-5.628800">
    <ele>656.0</ele>
    <time>2016-10-11T11:52:38Z</time>
    <name>Panel interpretativo</name>
    <desc></desc>
    <sym></sym>
  </wpt>
  <wpt lat="39.655050" lon="-5.629650">
    <ele>679.0</ele>
    <time>2016-10-11T11:52:38Z</time>
    <name>Atril interpretativo</name>
    <desc></desc>
    <sym></sym>
  </wpt>
  <wpt lat="39.647924" lon="-5.650749">
    <ele>593.8</ele>
    <time>2016-10-11T11:52:38Z</time>
    <name>Panel inicio </name>
    <desc></desc>
    <sym></sym>
  </wpt>
  <wpt lat="39.656097" lon="-5.646538">
    <ele>712.4</ele>
    <time>2019-05-21T23:00:48Z</time>
    <name>Ermita</name>
    <desc></desc>
    <sym></sym>
  </wpt>
  <trk>
    <name>01 La Breña señalización</name>
    <desc>SL-CC 42</desc>
    <trkseg>
      <trkpt lat="39.647970" lon="-5.650730">
        <ele>594.3</ele>
        <time>2019-05-20T06:57:17Z</time>
      </trkpt>
      <trkpt lat="39.647970" lon="-5.650730">
        <ele>594.3</ele>
        <time>2019-05-20T06:57:17Z</time>
      </trkpt>
      <trkpt lat="39.647970" lon="-5.650730">
        <ele>594.3</ele>
        <time>2019-05-20T06:57:17Z</time>
      </trkpt>
      <trkpt lat="39.647970" lon="-5.650730">
        <ele>594.3</ele>
        <time>2019-05-20T06:57:17Z</time>
      </trkpt>
      <trkpt lat="39.648370" lon="-5.650830">
        <ele>597.1</ele>
        <time>2019-05-20T06:57:57Z</time>
      </trkpt>
      <trkpt lat="39.648764" lon="-5.650970">
        <ele>600.0</ele>
        <time>2019-05-20T06:58:38Z</time>
      </trkpt>
      <trkpt lat="39.649412" lon="-5.651155">
        <ele>601.7</ele>
        <time>2019-05-20T06:59:44Z</time>
      </trkpt>
      <trkpt lat="39.649717" lon="-5.651315">
        <ele>602.7</ele>
        <time>2019-05-20T07:00:17Z</time>
      </trkpt>
      <trkpt lat="39.650005" lon="-5.651521">
        <ele>607.0</ele>
        <time>2019-05-20T07:00:50Z</time>
      </trkpt>
      <trkpt lat="39.650198" lon="-5.651570">
        <ele>608.9</ele>
        <time>2019-05-20T07:01:10Z</time>
      </trkpt>
      <trkpt lat="39.650375" lon="-5.651527">
        <ele>609.7</ele>
        <time>2019-05-20T07:01:28Z</time>
      </trkpt>
      <trkpt lat="39.650699" lon="-5.651530">
        <ele>614.4</ele>
        <time>2019-05-20T07:02:00Z</time>
      </trkpt>
      <trkpt lat="39.650822" lon="-5.651660">
        <ele>615.0</ele>
        <time>2019-05-20T07:02:16Z</time>
      </trkpt>
      <trkpt lat="39.650830" lon="-5.651792">
        <ele>618.0</ele>
        <time>2019-05-20T07:02:27Z</time>
      </trkpt>
      <trkpt lat="39.650765" lon="-5.651888">
        <ele>617.9</ele>
        <time>2019-05-20T07:02:37Z</time>
      </trkpt>
      <trkpt lat="39.650588" lon="-5.651966">
        <ele>618.2</ele>
        <time>2019-05-20T07:02:55Z</time>
      </trkpt>
      <trkpt lat="39.650441" lon="-5.651995">
        <ele>617.9</ele>
        <time>2019-05-20T07:03:10Z</time>
      </trkpt>
      <trkpt lat="39.650277" lon="-5.652050">
        <ele>618.1</ele>
        <time>2019-05-20T07:03:27Z</time>
      </trkpt>
      <trkpt lat="39.650227" lon="-5.652174">
        <ele>619.7</ele>
        <time>2019-05-20T07:03:38Z</time>
      </trkpt>
      <trkpt lat="39.650474" lon="-5.652512">
        <ele>623.0</ele>
        <time>2019-05-20T07:04:14Z</time>
      </trkpt>
      <trkpt lat="39.650589" lon="-5.652514">
        <ele>623.1</ele>
        <time>2019-05-20T07:04:25Z</time>
      </trkpt>
      <trkpt lat="39.651300" lon="-5.652308">
        <ele>626.0</ele>
        <time>2019-05-20T07:05:38Z</time>
      </trkpt>
      <trkpt lat="39.652000" lon="-5.651737">
        <ele>629.0</ele>
        <time>2019-05-20T07:07:01Z</time>
      </trkpt>
      <trkpt lat="39.652510" lon="-5.651300">
        <ele>633.0</ele>
        <time>2019-05-20T07:08:02Z</time>
      </trkpt>
      <trkpt lat="39.652696" lon="-5.651050">
        <ele>635.0</ele>
        <time>2019-05-20T07:08:28Z</time>
      </trkpt>
      <trkpt lat="39.652849" lon="-5.650864">
        <ele>637.0</ele>
        <time>2019-05-20T07:08:49Z</time>
      </trkpt>
      <trkpt lat="39.653070" lon="-5.650690">
        <ele>639.7</ele>
        <time>2019-05-20T07:09:15Z</time>
      </trkpt>
      <trkpt lat="39.653336" lon="-5.650530">
        <ele>643.3</ele>
        <time>2019-05-20T07:09:45Z</time>
      </trkpt>
      <trkpt lat="39.653470" lon="-5.650400">
        <ele>644.8</ele>
        <time>2019-05-20T07:10:02Z</time>
      </trkpt>
      <trkpt lat="39.653680" lon="-5.650190">
        <ele>648.3</ele>
        <time>2019-05-20T07:10:28Z</time>
      </trkpt>
      <trkpt lat="39.653849" lon="-5.649871">
        <ele>652.2</ele>
        <time>2019-05-20T07:10:58Z</time>
      </trkpt>
      <trkpt lat="39.653993" lon="-5.649591">
        <ele>653.7</ele>
        <time>2019-05-20T07:11:24Z</time>
      </trkpt>
      <trkpt lat="39.654172" lon="-5.649242">
        <ele>658.8</ele>
        <time>2019-05-20T07:11:57Z</time>
      </trkpt>
      <trkpt lat="39.654315" lon="-5.649000">
        <ele>662.7</ele>
        <time>2019-05-20T07:12:20Z</time>
      </trkpt>
      <trkpt lat="39.654313" lon="-5.648997">
        <ele>662.6</ele>
        <time>2019-05-20T07:12:21Z</time>
      </trkpt>
      <trkpt lat="39.654551" lon="-5.648516">
        <ele>668.2</ele>
        <time>2019-05-20T07:13:05Z</time>
      </trkpt>
      <trkpt lat="39.654629" lon="-5.648356">
        <ele>671.0</ele>
        <time>2019-05-20T07:13:20Z</time>
      </trkpt>
      <trkpt lat="39.654876" lon="-5.647710">
        <ele>678.1</ele>
        <time>2019-05-20T07:14:15Z</time>
      </trkpt>
      <trkpt lat="39.655105" lon="-5.646955">
        <ele>686.0</ele>
        <time>2019-05-20T07:15:18Z</time>
      </trkpt>
      <trkpt lat="39.655276" lon="-5.646551">
        <ele>691.0</ele>
        <time>2019-05-20T07:15:54Z</time>
      </trkpt>
      <trkpt lat="39.655469" lon="-5.646174">
        <ele>696.3</ele>
        <time>2019-05-20T07:16:29Z</time>
      </trkpt>
      <trkpt lat="39.655608" lon="-5.645917">
        <ele>699.1</ele>
        <time>2019-05-20T07:16:53Z</time>
      </trkpt>
      <trkpt lat="39.655728" lon="-5.645790">
        <ele>700.8</ele>
        <time>2019-05-20T07:17:09Z</time>
      </trkpt>
      <trkpt lat="39.655890" lon="-5.645706">
        <ele>702.0</ele>
        <time>2019-05-20T07:17:26Z</time>
      </trkpt>
      <trkpt lat="39.655946" lon="-5.645615">
        <ele>702.0</ele>
        <time>2019-05-20T07:17:35Z</time>
      </trkpt>
      <trkpt lat="39.655926" lon="-5.645425">
        <ele>703.8</ele>
        <time>2019-05-20T07:17:50Z</time>
      </trkpt>
      <trkpt lat="39.656129" lon="-5.644696">
        <ele>700.7</ele>
        <time>2019-05-20T07:18:50Z</time>
      </trkpt>
      <trkpt lat="39.656154" lon="-5.644402">
        <ele>700.6</ele>
        <time>2019-05-20T07:19:12Z</time>
      </trkpt>
      <trkpt lat="39.656084" lon="-5.643336">
        <ele>701.0</ele>
        <time>2019-05-20T07:20:34Z</time>
      </trkpt>
      <trkpt lat="39.656132" lon="-5.642711">
        <ele>697.6</ele>
        <time>2019-05-20T07:21:23Z</time>
      </trkpt>
      <trkpt lat="39.656197" lon="-5.642326">
        <ele>695.1</ele>
        <time>2019-05-20T07:21:53Z</time>
      </trkpt>
      <trkpt lat="39.656221" lon="-5.642033">
        <ele>694.3</ele>
        <time>2019-05-20T07:22:16Z</time>
      </trkpt>
      <trkpt lat="39.656220" lon="-5.641605">
        <ele>693.3</ele>
        <time>2019-05-20T07:22:49Z</time>
      </trkpt>
      <trkpt lat="39.656263" lon="-5.641096">
        <ele>690.9</ele>
        <time>2019-05-20T07:23:28Z</time>
      </trkpt>
      <trkpt lat="39.656260" lon="-5.640720">
        <ele>689.0</ele>
        <time>2019-05-20T07:23:57Z</time>
      </trkpt>
      <trkpt lat="39.656210" lon="-5.640410">
        <ele>687.8</ele>
        <time>2019-05-20T07:24:21Z</time>
      </trkpt>
      <trkpt lat="39.656173" lon="-5.640091">
        <ele>686.5</ele>
        <time>2019-05-20T07:24:46Z</time>
      </trkpt>
      <trkpt lat="39.656195" lon="-5.639812">
        <ele>685.1</ele>
        <time>2019-05-20T07:25:08Z</time>
      </trkpt>
      <trkpt lat="39.656094" lon="-5.639517">
        <ele>687.5</ele>
        <time>2019-05-20T07:25:33Z</time>
      </trkpt>
      <trkpt lat="39.655998" lon="-5.639073">
        <ele>688.0</ele>
        <time>2019-05-20T07:26:08Z</time>
      </trkpt>
      <trkpt lat="39.656030" lon="-5.638850">
        <ele>686.9</ele>
        <time>2019-05-20T07:26:26Z</time>
      </trkpt>
      <trkpt lat="39.656150" lon="-5.638180">
        <ele>683.9</ele>
        <time>2019-05-20T07:27:19Z</time>
      </trkpt>
      <trkpt lat="39.656152" lon="-5.637835">
        <ele>682.7</ele>
        <time>2019-05-20T07:27:45Z</time>
      </trkpt>
      <trkpt lat="39.656121" lon="-5.637635">
        <ele>683.0</ele>
        <time>2019-05-20T07:28:01Z</time>
      </trkpt>
      <trkpt lat="39.656244" lon="-5.637171">
        <ele>678.2</ele>
        <time>2019-05-20T07:28:39Z</time>
      </trkpt>
      <trkpt lat="39.656340" lon="-5.636880">
        <ele>676.1</ele>
        <time>2019-05-20T07:29:03Z</time>
      </trkpt>
      <trkpt lat="39.656347" lon="-5.636394">
        <ele>673.9</ele>
        <time>2019-05-20T07:29:41Z</time>
      </trkpt>
      <trkpt lat="39.656232" lon="-5.635521">
        <ele>673.4</ele>
        <time>2019-05-20T07:30:49Z</time>
      </trkpt>
      <trkpt lat="39.656249" lon="-5.635070">
        <ele>671.1</ele>
        <time>2019-05-20T07:31:23Z</time>
      </trkpt>
      <trkpt lat="39.656190" lon="-5.634602">
        <ele>671.4</ele>
        <time>2019-05-20T07:32:00Z</time>
      </trkpt>
      <trkpt lat="39.656209" lon="-5.634046">
        <ele>668.8</ele>
        <time>2019-05-20T07:32:43Z</time>
      </trkpt>
      <trkpt lat="39.656196" lon="-5.633641">
        <ele>669.1</ele>
        <time>2019-05-20T07:33:14Z</time>
      </trkpt>
      <trkpt lat="39.656118" lon="-5.633305">
        <ele>669.4</ele>
        <time>2019-05-20T07:33:41Z</time>
      </trkpt>
      <trkpt lat="39.656137" lon="-5.632977">
        <ele>666.4</ele>
        <time>2019-05-20T07:34:06Z</time>
      </trkpt>
      <trkpt lat="39.656096" lon="-5.632375">
        <ele>666.4</ele>
        <time>2019-05-20T07:34:53Z</time>
      </trkpt>
      <trkpt lat="39.656191" lon="-5.632070">
        <ele>660.8</ele>
        <time>2019-05-20T07:35:18Z</time>
      </trkpt>
      <trkpt lat="39.656182" lon="-5.631866">
        <ele>659.4</ele>
        <time>2019-05-20T07:35:34Z</time>
      </trkpt>
      <trkpt lat="39.656116" lon="-5.631691">
        <ele>660.6</ele>
        <time>2019-05-20T07:35:49Z</time>
      </trkpt>
      <trkpt lat="39.656060" lon="-5.631560">
        <ele>661.4</ele>
        <time>2019-05-20T07:36:01Z</time>
      </trkpt>
      <trkpt lat="39.655930" lon="-5.631240">
        <ele>662.0</ele>
        <time>2019-05-20T07:36:28Z</time>
      </trkpt>
      <trkpt lat="39.655750" lon="-5.630969">
        <ele>665.6</ele>
        <time>2019-05-20T07:36:56Z</time>
      </trkpt>
      <trkpt lat="39.655489" lon="-5.630444">
        <ele>670.1</ele>
        <time>2019-05-20T07:37:44Z</time>
      </trkpt>
      <trkpt lat="39.655301" lon="-5.630125">
        <ele>673.0</ele>
        <time>2019-05-20T07:38:15Z</time>
      </trkpt>
      <trkpt lat="39.655149" lon="-5.629836">
        <ele>674.4</ele>
        <time>2019-05-20T07:38:42Z</time>
      </trkpt>
      <trkpt lat="39.654945" lon="-5.629529">
        <ele>677.0</ele>
        <time>2019-05-20T07:39:14Z</time>
      </trkpt>
      <trkpt lat="39.654815" lon="-5.629302">
        <ele>678.7</ele>
        <time>2019-05-20T07:39:35Z</time>
      </trkpt>
      <trkpt lat="39.654630" lon="-5.628670">
        <ele>673.9</ele>
        <time>2019-05-20T07:40:27Z</time>
      </trkpt>
      <trkpt lat="39.654421" lon="-5.627965">
        <ele>672.7</ele>
        <time>2019-05-20T07:41:25Z</time>
      </trkpt>
      <trkpt lat="39.654226" lon="-5.627459">
        <ele>674.5</ele>
        <time>2019-05-20T07:42:09Z</time>
      </trkpt>
      <trkpt lat="39.654272" lon="-5.627102">
        <ele>667.3</ele>
        <time>2019-05-20T07:42:38Z</time>
      </trkpt>
      <trkpt lat="39.654343" lon="-5.626347">
        <ele>653.8</ele>
        <time>2019-05-20T07:43:37Z</time>
      </trkpt>
      <trkpt lat="39.654277" lon="-5.625998">
        <ele>652.2</ele>
        <time>2019-05-20T07:44:05Z</time>
      </trkpt>
      <trkpt lat="39.654265" lon="-5.625712">
        <ele>647.4</ele>
        <time>2019-05-20T07:44:27Z</time>
      </trkpt>
      <trkpt lat="39.654070" lon="-5.625480">
        <ele>650.9</ele>
        <time>2019-05-20T07:44:54Z</time>
      </trkpt>
      <trkpt lat="39.653971" lon="-5.625203">
        <ele>652.3</ele>
        <time>2019-05-20T07:45:17Z</time>
      </trkpt>
      <trkpt lat="39.653880" lon="-5.624930">
        <ele>650.6</ele>
        <time>2019-05-20T07:45:40Z</time>
      </trkpt>
      <trkpt lat="39.653762" lon="-5.624749">
        <ele>651.6</ele>
        <time>2019-05-20T07:45:59Z</time>
      </trkpt>
      <trkpt lat="39.653639" lon="-5.624439">
        <ele>650.2</ele>
        <time>2019-05-20T07:46:25Z</time>
      </trkpt>
      <trkpt lat="39.653516" lon="-5.624003">
        <ele>645.6</ele>
        <time>2019-05-20T07:47:01Z</time>
      </trkpt>
      <trkpt lat="39.653340" lon="-5.623650">
        <ele>645.4</ele>
        <time>2019-05-20T07:47:34Z</time>
      </trkpt>
      <trkpt lat="39.653018" lon="-5.623305">
        <ele>646.2</ele>
        <time>2019-05-20T07:48:15Z</time>
      </trkpt>
      <trkpt lat="39.652778" lon="-5.622946">
        <ele>646.1</ele>
        <time>2019-05-20T07:48:52Z</time>
      </trkpt>
      <trkpt lat="39.652436" lon="-5.622750">
        <ele>649.6</ele>
        <time>2019-05-20T07:49:29Z</time>
      </trkpt>
      <trkpt lat="39.651720" lon="-5.622245">
        <ele>651.7</ele>
        <time>2019-05-20T07:50:51Z</time>
      </trkpt>
      <trkpt lat="39.651210" lon="-5.621783">
        <ele>648.7</ele>
        <time>2019-05-20T07:51:53Z</time>
      </trkpt>
      <trkpt lat="39.651007" lon="-5.621513">
        <ele>645.7</ele>
        <time>2019-05-20T07:52:22Z</time>
      </trkpt>
      <trkpt lat="39.650767" lon="-5.621253">
        <ele>645.2</ele>
        <time>2019-05-20T07:52:53Z</time>
      </trkpt>
      <trkpt lat="39.650674" lon="-5.621206">
        <ele>646.0</ele>
        <time>2019-05-20T07:53:03Z</time>
      </trkpt>
      <trkpt lat="39.650500" lon="-5.621220">
        <ele>647.0</ele>
        <time>2019-05-20T07:53:20Z</time>
      </trkpt>
      <trkpt lat="39.650376" lon="-5.621305">
        <ele>647.1</ele>
        <time>2019-05-20T07:53:34Z</time>
      </trkpt>
      <trkpt lat="39.650360" lon="-5.621640">
        <ele>648.7</ele>
        <time>2019-05-20T07:54:00Z</time>
      </trkpt>
      <trkpt lat="39.650340" lon="-5.621990">
        <ele>650.3</ele>
        <time>2019-05-20T07:54:27Z</time>
      </trkpt>
      <trkpt lat="39.650150" lon="-5.623200">
        <ele>650.1</ele>
        <time>2019-05-20T07:56:02Z</time>
      </trkpt>
      <trkpt lat="39.649970" lon="-5.624010">
        <ele>645.9</ele>
        <time>2019-05-20T07:57:07Z</time>
      </trkpt>
      <trkpt lat="39.649950" lon="-5.624120">
        <ele>646.2</ele>
        <time>2019-05-20T07:57:16Z</time>
      </trkpt>
      <trkpt lat="39.649810" lon="-5.624940">
        <ele>649.8</ele>
        <time>2019-05-20T07:58:20Z</time>
      </trkpt>
      <trkpt lat="39.649730" lon="-5.625250">
        <ele>650.7</ele>
        <time>2019-05-20T07:58:45Z</time>
      </trkpt>
      <trkpt lat="39.649660" lon="-5.625470">
        <ele>650.2</ele>
        <time>2019-05-20T07:59:04Z</time>
      </trkpt>
      <trkpt lat="39.649650" lon="-5.625880">
        <ele>653.4</ele>
        <time>2019-05-20T07:59:35Z</time>
      </trkpt>
      <trkpt lat="39.649580" lon="-5.626270">
        <ele>653.2</ele>
        <time>2019-05-20T08:00:06Z</time>
      </trkpt>
      <trkpt lat="39.649580" lon="-5.626670">
        <ele>652.2</ele>
        <time>2019-05-20T08:00:37Z</time>
      </trkpt>
      <trkpt lat="39.649620" lon="-5.626920">
        <ele>651.9</ele>
        <time>2019-05-20T08:00:56Z</time>
      </trkpt>
      <trkpt lat="39.649834" lon="-5.627660">
        <ele>655.0</ele>
        <time>2019-05-20T08:01:57Z</time>
      </trkpt>
      <trkpt lat="39.649900" lon="-5.627942">
        <ele>656.5</ele>
        <time>2019-05-20T08:02:20Z</time>
      </trkpt>
      <trkpt lat="39.649768" lon="-5.628213">
        <ele>654.1</ele>
        <time>2019-05-20T08:02:45Z</time>
      </trkpt>
      <trkpt lat="39.649773" lon="-5.628362">
        <ele>656.1</ele>
        <time>2019-05-20T08:02:56Z</time>
      </trkpt>
      <trkpt lat="39.649771" lon="-5.628560">
        <ele>658.3</ele>
        <time>2019-05-20T08:03:12Z</time>
      </trkpt>
      <trkpt lat="39.649731" lon="-5.628833">
        <ele>659.2</ele>
        <time>2019-05-20T08:03:33Z</time>
      </trkpt>
      <trkpt lat="39.649630" lon="-5.629525">
        <ele>659.1</ele>
        <time>2019-05-20T08:04:27Z</time>
      </trkpt>
      <trkpt lat="39.649672" lon="-5.629865">
        <ele>659.8</ele>
        <time>2019-05-20T08:04:54Z</time>
      </trkpt>
      <trkpt lat="39.649644" lon="-5.631058">
        <ele>649.3</ele>
        <time>2019-05-20T08:06:26Z</time>
      </trkpt>
      <trkpt lat="39.649720" lon="-5.631320">
        <ele>648.2</ele>
        <time>2019-05-20T08:06:47Z</time>
      </trkpt>
      <trkpt lat="39.649933" lon="-5.631541">
        <ele>650.1</ele>
        <time>2019-05-20T08:07:15Z</time>
      </trkpt>
      <trkpt lat="39.650150" lon="-5.632370">
        <ele>649.0</ele>
        <time>2019-05-20T08:08:22Z</time>
      </trkpt>
      <trkpt lat="39.650290" lon="-5.632570">
        <ele>650.5</ele>
        <time>2019-05-20T08:08:43Z</time>
      </trkpt>
      <trkpt lat="39.650390" lon="-5.632700">
        <ele>652.1</ele>
        <time>2019-05-20T08:08:57Z</time>
      </trkpt>
      <trkpt lat="39.650500" lon="-5.632885">
        <ele>653.3</ele>
        <time>2019-05-20T08:09:15Z</time>
      </trkpt>
      <trkpt lat="39.650552" lon="-5.633351">
        <ele>651.0</ele>
        <time>2019-05-20T08:09:51Z</time>
      </trkpt>
      <trkpt lat="39.650641" lon="-5.633587">
        <ele>651.6</ele>
        <time>2019-05-20T08:10:11Z</time>
      </trkpt>
      <trkpt lat="39.650676" lon="-5.633833">
        <ele>651.2</ele>
        <time>2019-05-20T08:10:30Z</time>
      </trkpt>
      <trkpt lat="39.650587" lon="-5.634092">
        <ele>649.3</ele>
        <time>2019-05-20T08:10:52Z</time>
      </trkpt>
      <trkpt lat="39.650636" lon="-5.634723">
        <ele>651.5</ele>
        <time>2019-05-20T08:11:41Z</time>
      </trkpt>
      <trkpt lat="39.650582" lon="-5.636102">
        <ele>646.9</ele>
        <time>2019-05-20T08:13:27Z</time>
      </trkpt>
      <trkpt lat="39.650598" lon="-5.636374">
        <ele>645.8</ele>
        <time>2019-05-20T08:13:48Z</time>
      </trkpt>
      <trkpt lat="39.650770" lon="-5.637110">
        <ele>645.7</ele>
        <time>2019-05-20T08:14:47Z</time>
      </trkpt>
      <trkpt lat="39.650880" lon="-5.637650">
        <ele>644.0</ele>
        <time>2019-05-20T08:15:30Z</time>
      </trkpt>
      <trkpt lat="39.650900" lon="-5.638040">
        <ele>643.1</ele>
        <time>2019-05-20T08:16:00Z</time>
      </trkpt>
      <trkpt lat="39.650910" lon="-5.638270">
        <ele>642.5</ele>
        <time>2019-05-20T08:16:18Z</time>
      </trkpt>
      <trkpt lat="39.650960" lon="-5.638940">
        <ele>644.4</ele>
        <time>2019-05-20T08:17:10Z</time>
      </trkpt>
      <trkpt lat="39.650970" lon="-5.638950">
        <ele>644.9</ele>
        <time>2019-05-20T08:17:11Z</time>
      </trkpt>
      <trkpt lat="39.650910" lon="-5.639090">
        <ele>643.5</ele>
        <time>2019-05-20T08:17:24Z</time>
      </trkpt>
      <trkpt lat="39.650920" lon="-5.639460">
        <ele>643.9</ele>
        <time>2019-05-20T08:17:52Z</time>
      </trkpt>
      <trkpt lat="39.651090" lon="-5.639980">
        <ele>648.4</ele>
        <time>2019-05-20T08:18:36Z</time>
      </trkpt>
      <trkpt lat="39.651170" lon="-5.640140">
        <ele>649.6</ele>
        <time>2019-05-20T08:18:50Z</time>
      </trkpt>
      <trkpt lat="39.651400" lon="-5.640470">
        <ele>655.5</ele>
        <time>2019-05-20T08:19:25Z</time>
      </trkpt>
      <trkpt lat="39.651470" lon="-5.640650">
        <ele>655.9</ele>
        <time>2019-05-20T08:19:40Z</time>
      </trkpt>
      <trkpt lat="39.651690" lon="-5.641190">
        <ele>659.6</ele>
        <time>2019-05-20T08:20:27Z</time>
      </trkpt>
      <trkpt lat="39.651850" lon="-5.641610">
        <ele>664.1</ele>
        <time>2019-05-20T08:21:04Z</time>
      </trkpt>
      <trkpt lat="39.651920" lon="-5.642570">
        <ele>661.5</ele>
        <time>2019-05-20T08:22:18Z</time>
      </trkpt>
      <trkpt lat="39.652136" lon="-5.643209">
        <ele>663.5</ele>
        <time>2019-05-20T08:23:11Z</time>
      </trkpt>
      <trkpt lat="39.652218" lon="-5.643687">
        <ele>660.5</ele>
        <time>2019-05-20T08:23:49Z</time>
      </trkpt>
      <trkpt lat="39.652215" lon="-5.643990">
        <ele>657.9</ele>
        <time>2019-05-20T08:24:13Z</time>
      </trkpt>
      <trkpt lat="39.652291" lon="-5.644404">
        <ele>655.4</ele>
        <time>2019-05-20T08:24:45Z</time>
      </trkpt>
      <trkpt lat="39.652435" lon="-5.644616">
        <ele>656.7</ele>
        <time>2019-05-20T08:25:07Z</time>
      </trkpt>
      <trkpt lat="39.652633" lon="-5.645136">
        <ele>656.0</ele>
        <time>2019-05-20T08:25:52Z</time>
      </trkpt>
      <trkpt lat="39.652837" lon="-5.645677">
        <ele>653.0</ele>
        <time>2019-05-20T08:26:38Z</time>
      </trkpt>
      <trkpt lat="39.653343" lon="-5.646279">
        <ele>652.5</ele>
        <time>2019-05-20T08:27:47Z</time>
      </trkpt>
      <trkpt lat="39.653574" lon="-5.646431">
        <ele>652.7</ele>
        <time>2019-05-20T08:28:12Z</time>
      </trkpt>
      <trkpt lat="39.654087" lon="-5.647065">
        <ele>655.3</ele>
        <time>2019-05-20T08:29:23Z</time>
      </trkpt>
      <trkpt lat="39.654190" lon="-5.647730">
        <ele>656.3</ele>
        <time>2019-05-20T08:30:15Z</time>
      </trkpt>
      <trkpt lat="39.654250" lon="-5.648110">
        <ele>658.2</ele>
        <time>2019-05-20T08:30:45Z</time>
      </trkpt>
      <trkpt lat="39.654210" lon="-5.648700">
        <ele>659.3</ele>
        <time>2019-05-20T08:31:31Z</time>
      </trkpt>
      <trkpt lat="39.654290" lon="-5.648950">
        <ele>661.8</ele>
        <time>2019-05-20T08:31:51Z</time>
      </trkpt>
      <trkpt lat="39.654313" lon="-5.648997">
        <ele>662.6</ele>
        <time>2019-05-20T08:31:56Z</time>
      </trkpt>
      <trkpt lat="39.654315" lon="-5.649000">
        <ele>662.7</ele>
        <time>2019-05-20T08:31:56Z</time>
      </trkpt>
      <trkpt lat="39.654172" lon="-5.649242">
        <ele>658.8</ele>
        <time>2019-05-20T08:32:20Z</time>
      </trkpt>
      <trkpt lat="39.653993" lon="-5.649591">
        <ele>653.7</ele>
        <time>2019-05-20T08:32:52Z</time>
      </trkpt>
      <trkpt lat="39.653849" lon="-5.649871">
        <ele>652.2</ele>
        <time>2019-05-20T08:33:18Z</time>
      </trkpt>
      <trkpt lat="39.653680" lon="-5.650190">
        <ele>648.3</ele>
        <time>2019-05-20T08:33:48Z</time>
      </trkpt>
      <trkpt lat="39.653470" lon="-5.650400">
        <ele>644.8</ele>
        <time>2019-05-20T08:34:15Z</time>
      </trkpt>
      <trkpt lat="39.653336" lon="-5.650530">
        <ele>643.3</ele>
        <time>2019-05-20T08:34:32Z</time>
      </trkpt>
      <trkpt lat="39.653070" lon="-5.650690">
        <ele>639.7</ele>
        <time>2019-05-20T08:35:01Z</time>
      </trkpt>
      <trkpt lat="39.652849" lon="-5.650864">
        <ele>637.0</ele>
        <time>2019-05-20T08:35:27Z</time>
      </trkpt>
      <trkpt lat="39.652696" lon="-5.651050">
        <ele>635.0</ele>
        <time>2019-05-20T08:35:48Z</time>
      </trkpt>
      <trkpt lat="39.652510" lon="-5.651300">
        <ele>633.0</ele>
        <time>2019-05-20T08:36:15Z</time>
      </trkpt>
      <trkpt lat="39.652000" lon="-5.651737">
        <ele>629.0</ele>
        <time>2019-05-20T08:37:16Z</time>
      </trkpt>
      <trkpt lat="39.651300" lon="-5.652308">
        <ele>626.0</ele>
        <time>2019-05-20T08:38:38Z</time>
      </trkpt>
      <trkpt lat="39.650589" lon="-5.652514">
        <ele>623.1</ele>
        <time>2019-05-20T08:39:51Z</time>
      </trkpt>
      <trkpt lat="39.650474" lon="-5.652512">
        <ele>623.0</ele>
        <time>2019-05-20T08:40:03Z</time>
      </trkpt>
      <trkpt lat="39.650227" lon="-5.652174">
        <ele>619.7</ele>
        <time>2019-05-20T08:40:38Z</time>
      </trkpt>
      <trkpt lat="39.650277" lon="-5.652050">
        <ele>618.1</ele>
        <time>2019-05-20T08:40:49Z</time>
      </trkpt>
      <trkpt lat="39.650441" lon="-5.651995">
        <ele>617.9</ele>
        <time>2019-05-20T08:41:06Z</time>
      </trkpt>
      <trkpt lat="39.650588" lon="-5.651966">
        <ele>618.2</ele>
        <time>2019-05-20T08:41:21Z</time>
      </trkpt>
      <trkpt lat="39.650765" lon="-5.651888">
        <ele>617.9</ele>
        <time>2019-05-20T08:41:40Z</time>
      </trkpt>
      <trkpt lat="39.650830" lon="-5.651792">
        <ele>618.0</ele>
        <time>2019-05-20T08:41:50Z</time>
      </trkpt>
      <trkpt lat="39.650822" lon="-5.651660">
        <ele>615.0</ele>
        <time>2019-05-20T08:42:00Z</time>
      </trkpt>
      <trkpt lat="39.650699" lon="-5.651530">
        <ele>614.4</ele>
        <time>2019-05-20T08:42:16Z</time>
      </trkpt>
      <trkpt lat="39.650375" lon="-5.651527">
        <ele>609.7</ele>
        <time>2019-05-20T08:42:49Z</time>
      </trkpt>
      <trkpt lat="39.650198" lon="-5.651570">
        <ele>608.9</ele>
        <time>2019-05-20T08:43:06Z</time>
      </trkpt>
      <trkpt lat="39.650005" lon="-5.651521">
        <ele>607.0</ele>
        <time>2019-05-20T08:43:26Z</time>
      </trkpt>
      <trkpt lat="39.649717" lon="-5.651315">
        <ele>602.7</ele>
        <time>2019-05-20T08:43:59Z</time>
      </trkpt>
      <trkpt lat="39.649412" lon="-5.651155">
        <ele>601.7</ele>
        <time>2019-05-20T08:44:32Z</time>
      </trkpt>
      <trkpt lat="39.648764" lon="-5.650970">
        <ele>600.0</ele>
        <time>2019-05-20T08:45:38Z</time>
      </trkpt>
      <trkpt lat="39.648370" lon="-5.650830">
        <ele>597.1</ele>
        <time>2019-05-20T08:46:19Z</time>
      </trkpt>
      <trkpt lat="39.647970" lon="-5.650730">
        <ele>594.3</ele>
        <time>2019-05-20T08:47:00Z</time>
      </trkpt>
      <trkpt lat="39.647970" lon="-5.650730">
        <ele>594.3</ele>
        <time>2019-05-20T08:47:00Z</time>
      </trkpt>
      <trkpt lat="39.647970" lon="-5.650730">
        <ele>594.3</ele>
        <time>2019-05-20T08:47:00Z</time>
      </trkpt>
      <trkpt lat="39.647970" lon="-5.650730">
        <ele>594.3</ele>
        <time>2019-05-20T08:47:00Z</time>
      </trkpt>
    </trkseg>
  </trk>
</gpx>
